createdAt,value
2023-01-12T00:05:35.117Z,4.8
2023-01-12T00:10:56.998Z,3.6
2023-01-12T00:16:28.974Z,2.4
2023-01-12T00:22:19.178Z,0
2023-01-12T00:27:38.445Z,2.4
2023-01-12T00:33:11.912Z,0
2023-01-12T00:38:48.143Z,2.4
2023-01-12T00:44:33.629Z,0
2023-01-12T00:50:02.742Z,0
2023-01-12T00:55:43.344Z,0
2023-01-12T01:01:07.284Z,3.6
2023-01-12T01:06:56.129Z,3.6
2023-01-12T01:12:01.044Z,0
2023-01-12T01:18:03.934Z,0
2023-01-12T01:23:16.046Z,2.4
2023-01-12T01:28:45.066Z,3.6
2023-01-12T01:34:30.447Z,0
2023-01-12T01:40:09.649Z,3.6
2023-01-12T01:45:50.657Z,0
2023-01-12T01:51:24.897Z,0
2023-01-12T01:56:42.665Z,0
2023-01-12T02:02:14.186Z,2.4
2023-01-12T02:07:56.087Z,4.8
2023-01-12T02:13:38.430Z,7.2
2023-01-12T02:19:01.943Z,8.4
2023-01-12T02:24:26.359Z,3.6
2023-01-12T02:30:22.017Z,3.6
2023-01-12T02:36:00.205Z,4.8
2023-01-12T02:41:29.413Z,4.8
2023-01-12T02:47:01.298Z,4.8
2023-01-12T02:52:37.667Z,5.9
2023-01-12T02:58:01.631Z,4.8
2023-01-12T03:03:53.418Z,8.4
2023-01-12T03:09:02.293Z,8.4
2023-01-12T03:14:52.750Z,8.4
2023-01-12T03:20:21.688Z,10.7
2023-01-12T03:25:55.613Z,7.2
2023-01-12T03:31:42.941Z,8.4
2023-01-12T03:36:58.122Z,9.6
2023-01-12T03:42:41.529Z,9.6
2023-01-12T03:48:05.587Z,11.9
2023-01-12T03:54:01.516Z,10.7
2023-01-12T03:59:13.245Z,10.7
2023-01-12T04:05:12.220Z,9.6
2023-01-12T04:10:44.318Z,7.2
2023-01-12T04:16:17.160Z,8.4
2023-01-12T04:21:51.850Z,7.2
2023-01-12T04:27:23.262Z,4.8
2023-01-12T04:32:44.771Z,8.4
2023-01-12T04:38:22.439Z,8.4
2023-01-12T04:44:16.716Z,9.6
2023-01-12T04:49:53.167Z,10.7
2023-01-12T04:55:23.591Z,7.2
2023-01-12T05:00:51.399Z,10.7
2023-01-12T05:06:38.128Z,7.2
2023-01-12T05:12:06.060Z,8.4
2023-01-12T05:17:40.063Z,9.6
2023-01-12T05:23:17.268Z,7.2
2023-01-12T05:28:55.969Z,9.6
2023-01-12T05:34:32.965Z,8.4
2023-01-12T05:40:01.939Z,8.4
2023-01-12T05:45:37.931Z,9.6
2023-01-12T05:51:17.063Z,10.7
2023-01-12T05:56:33.478Z,9.6
2023-01-12T06:02:26.198Z,10.7
2023-01-12T06:07:57.650Z,9.6
2023-01-12T06:13:10.987Z,8.4
2023-01-12T06:19:03.103Z,5.9
2023-01-12T06:24:26.834Z,4.8
2023-01-12T06:30:17.597Z,4.8
2023-01-12T06:35:49.900Z,7.2
2023-01-12T06:41:04.893Z,8.4
2023-01-12T06:47:09.628Z,8.4
2023-01-12T06:52:37.051Z,9.6
2023-01-12T06:58:04.248Z,7.2
2023-01-12T07:03:46.852Z,7.2
2023-01-12T07:09:03.663Z,5.9
2023-01-12T07:14:37.874Z,7.2
2023-01-12T07:20:35.897Z,5.9
2023-01-12T07:25:59.673Z,7.2
2023-01-12T07:31:44.800Z,7.2
2023-01-12T07:37:06.821Z,8.4
2023-01-12T07:42:30.209Z,7.2
2023-01-12T07:48:29.780Z,7.2
2023-01-12T07:53:39.232Z,7.2
2023-01-12T07:59:29.890Z,8.4
2023-01-12T08:04:46.627Z,7.2
2023-01-12T08:10:24.110Z,11.9
2023-01-12T08:15:56.848Z,9.6
2023-01-12T08:21:33.676Z,7.2
2023-01-12T08:27:18.054Z,7.2
2023-01-12T08:32:58.583Z,7.2
2023-01-12T08:38:32.985Z,8.4
2023-01-12T08:44:00.138Z,9.6
2023-01-12T08:49:38.318Z,8.4
2023-01-12T08:55:03.307Z,10.7
2023-01-12T09:00:36.681Z,9.6
2023-01-12T09:06:37.842Z,10.7
2023-01-12T09:12:09.662Z,9.6
2023-01-12T09:17:43.250Z,11.9
2023-01-12T09:22:56.630Z,11.9
2023-01-12T09:28:42.035Z,13.2
2023-01-12T09:34:16.606Z,10.7
2023-01-12T09:39:44.963Z,13.2
2023-01-12T09:45:41.310Z,14.4
2023-01-12T09:50:52.181Z,14.4
2023-01-12T09:56:34.064Z,13.2
2023-01-12T10:01:59.687Z,11.9
2023-01-12T10:07:49.236Z,11.9
2023-01-12T10:13:23.921Z,14.4
2023-01-12T10:19:11.073Z,10.7
2023-01-12T10:24:38.959Z,14.4
2023-01-12T10:30:15.375Z,10.7
2023-01-12T10:35:43.367Z,11.9
2023-01-12T10:41:12.150Z,9.6
2023-01-12T10:46:58.877Z,11.9
2023-01-12T10:52:26.368Z,11.9
2023-01-12T10:58:08.351Z,10.7
2023-01-12T11:03:49.476Z,9.6
2023-01-12T11:09:29.855Z,13.2
2023-01-12T11:14:45.335Z,11.9
2023-01-12T11:20:14.868Z,11.9
2023-01-12T11:25:55.310Z,9.6
2023-01-12T11:31:35.895Z,8.4
2023-01-12T11:37:05.700Z,7.2
2023-01-12T11:42:33.485Z,9.6
2023-01-12T11:48:11.157Z,11.9
2023-01-12T11:53:57.498Z,11.9
2023-01-12T11:59:40.275Z,11.9
2023-01-12T12:05:03.701Z,11.9
2023-01-12T12:10:30.373Z,13.2
2023-01-12T12:16:28.010Z,13.2
2023-01-12T12:21:46.901Z,11.9
2023-01-12T12:27:37.121Z,11.9
2023-01-12T12:32:50.608Z,10.7
2023-01-12T12:38:36.539Z,10.7
2023-01-12T12:44:07.450Z,10.7
2023-01-12T12:50:02.068Z,11.9
2023-01-12T12:55:27.789Z,10.7
2023-01-12T13:01:02.057Z,11.9
2023-01-12T13:06:42.824Z,9.6
2023-01-12T13:12:19.197Z,9.6
2023-01-12T13:17:31.921Z,10.7
2023-01-12T13:23:22.868Z,10.7
2023-01-12T13:28:51.953Z,10.7
2023-01-12T13:34:39.834Z,8.4
2023-01-12T13:40:05.757Z,10.7
2023-01-12T13:45:37.181Z,9.6
2023-01-12T13:51:34.910Z,10.7
2023-01-12T13:56:59.678Z,9.6
2023-01-12T14:02:42.626Z,10.7
2023-01-12T14:08:02.240Z,10.7
2023-01-12T14:13:49.530Z,9.6
2023-01-12T14:19:04.177Z,8.4
2023-01-12T14:24:41.358Z,10.7
2023-01-12T14:30:13.426Z,9.6
2023-01-12T14:35:49.545Z,13.2
2023-01-12T14:41:35.438Z,11.9
2023-01-12T14:47:18.036Z,11.9
2023-01-12T14:52:41.842Z,9.6
2023-01-12T14:58:21.325Z,10.7
2023-01-12T15:04:10.283Z,11.9
2023-01-12T15:09:39.428Z,11.9
2023-01-12T15:15:22.246Z,14.4
2023-01-12T15:20:45.003Z,11.9
2023-01-12T15:26:21.277Z,7.2
2023-01-12T15:32:00.310Z,8.4
2023-01-12T15:37:20.789Z,11.9
2023-01-12T15:43:08.496Z,11.9
2023-01-12T15:48:40.909Z,10.7
2023-01-12T15:53:57.938Z,13.2
2023-01-12T15:59:40.664Z,11.9
2023-01-12T16:05:34.081Z,10.7
2023-01-12T16:10:53.245Z,9.6
2023-01-12T16:16:47.180Z,8.4
2023-01-12T16:21:58.341Z,10.7
2023-01-12T16:27:53.835Z,9.6
2023-01-12T16:33:02.586Z,10.7
2023-01-12T16:38:38.571Z,9.6
2023-01-12T16:44:38.987Z,10.7
2023-01-12T16:49:49.249Z,9.6
2023-01-12T16:55:43.315Z,9.6
2023-01-12T17:01:01.221Z,10.7
2023-01-12T17:06:48.006Z,10.7
2023-01-12T17:12:21.233Z,8.4
2023-01-12T17:17:43.902Z,9.6
2023-01-12T17:23:21.472Z,9.6
2023-01-12T17:29:11.312Z,9.6
2023-01-12T17:34:30.271Z,10.7
2023-01-12T17:40:13.248Z,11.9
2023-01-12T17:45:59.440Z,10.7
2023-01-12T17:51:36.642Z,11.9
2023-01-12T17:56:50.665Z,10.7
2023-01-12T18:02:26.415Z,13.2
2023-01-12T18:08:08.600Z,11.9
2023-01-12T18:13:55.576Z,8.4
2023-01-12T18:19:15.318Z,10.7
2023-01-12T18:24:59.758Z,8.4
2023-01-12T18:30:18.601Z,7.2
2023-01-12T18:35:50.473Z,4.8
2023-01-12T18:41:51.474Z,5.9
2023-01-12T18:47:24.117Z,5.9
2023-01-12T18:53:01.707Z,5.9
2023-01-12T18:58:31.568Z,5.9
2023-01-12T19:04:10.477Z,8.4
2023-01-12T19:09:28.876Z,7.2
2023-01-12T19:15:19.396Z,5.9
2023-01-12T19:20:36.899Z,5.9
2023-01-12T19:26:29.972Z,4.8
2023-01-12T19:31:51.056Z,3.6
2023-01-12T19:37:17.591Z,5.9
2023-01-12T19:43:00.022Z,0
2023-01-12T19:48:45.703Z,0
2023-01-12T19:54:15.417Z,0
2023-01-12T19:59:34.816Z,3.6
2023-01-12T20:05:13.886Z,4.8
2023-01-12T20:10:57.624Z,4.8
2023-01-12T20:16:39.396Z,2.4
2023-01-12T20:22:08.040Z,3.6
2023-01-12T20:27:20.761Z,0
2023-01-12T20:32:59.924Z,2.4
2023-01-12T20:38:31.483Z,0
2023-01-12T20:44:22.391Z,0
2023-01-12T20:49:49.385Z,0
2023-01-12T20:55:20.583Z,0
2023-01-12T21:00:55.849Z,0
2023-01-12T21:06:44.688Z,0
2023-01-12T21:11:56.632Z,0
2023-01-12T21:17:34.251Z,0
2023-01-12T21:23:19.247Z,0
2023-01-12T21:28:50.930Z,0
2023-01-12T21:34:15.051Z,0
2023-01-12T21:39:40.098Z,0
2023-01-12T21:45:22.205Z,0
2023-01-12T21:50:53.406Z,3.6
2023-01-12T21:56:31.800Z,0
2023-01-12T22:02:18.646Z,4.8
2023-01-12T22:07:42.322Z,0
2023-01-12T22:13:12.001Z,0
2023-01-12T22:18:56.870Z,0
2023-01-12T22:24:11.215Z,0
2023-01-12T22:29:46.203Z,2.4
2023-01-12T22:35:35.002Z,3.6
2023-01-12T22:41:18.339Z,4.8
2023-01-12T22:46:38.770Z,4.8
2023-01-12T22:52:13.805Z,7.2
2023-01-12T22:57:59.579Z,8.4
2023-01-12T23:03:41.994Z,7.2
2023-01-12T23:09:02.166Z,5.9
2023-01-12T23:14:31.055Z,8.4
2023-01-12T23:20:21.780Z,8.4
2023-01-12T23:25:46.462Z,5.9
2023-01-12T23:31:18.639Z,5.9
2023-01-12T23:36:49.751Z,7.2
2023-01-12T23:42:38.130Z,8.4
2023-01-12T23:47:54.217Z,10.7
2023-01-12T23:53:50.104Z,9.6
2023-01-12T23:59:10.283Z,9.6
